No data was retrieved for https://query.yahooapis.com/v1/public/yql?q=select+%2A+from+weather.forecast+where+woeid%3D731260&format=xml&u=c



METAR rapporten vliegvelden

   
EHAM - Amsterdam
Gewijzigd: 25-02-2020 17:25
Licht bewolkt  
Licht bewolkt  
   Wind: Westen 20.4 km/h
Wind: Westen 20.4 km/h
Temperatuur: 7°C
Voelt als: 3°C
Dauwpunt: 2°C
Vochtigheid: 71%
Barometer: 995 hPa
Bewolking: Licht bewolkt
Zicht: meer dan 10 km
Bewolking: Licht bewolkt 2500 ft
EHAM 251625Z 26011KT 9999 FEW025 07/02 Q0995 NOSIG
EHBK - Maastricht
Gewijzigd: 25-02-2020 17:25
Grotendeels bewolkt  
Grotendeels bewolkt  
   Wind: Westen 7.4 km/h
Wind: Westen 7.4 km/h
Temperatuur: 5°C
Voelt als: 3°C
Dauwpunt: 3°C
Vochtigheid: 87%
Barometer: 998 hPa
Bewolking: Grotendeels bewolkt
Zicht: meer dan 10 km
Bewolking: Gedeeltelijk bewolkt 3300 ft,
Grotendeels bewolkt 3800 ft,
Grotendeels bewolkt 4400 ft
EHBK 251625Z AUTO 26004KT 210V320 9999 SCT033 BKN038 BKN044 05/03 Q0998 REDZ TEMPO 26015G30KT 7000 SHRAGS SCT015CB
ELLX - Luxemburg
Gewijzigd: 25-02-2020 17:20
Light Showers, Regen, Grotendeels bewolkt  
Light Showers, Regen, Grotendeels bewolkt  
   Wind: ZW 22.2 km/h
Wind: ZW 22.2 km/h
Temperatuur: 7°C
Voelt als: 3°C
Dauwpunt: 2°C
Vochtigheid: 71%
Barometer: 1000 hPa
Bewolking: Grotendeels bewolkt
Zicht: 8 km
Bewolking: Gedeeltelijk bewolkt 2500 ft,
Grotendeels bewolkt 4500 ft
ELLX 251620Z 22012KT 8000 -SHRA SCT025CB BKN045 07/02 Q1000 TEMPO 27015G25KT 4000 SHRA
EDDL - Dusseldorf
Gewijzigd: 25-02-2020 17:20
Regenbuien, Small Hail, Regen, Grotendeels bewolkt  
Regenbuien, Small Hail, Regen, Grotendeels bewolkt  
   Wind: Westen 44.4 km/h
Wind: Westen 44.4 km/h
Temperatuur: 5°C
Voelt als: -1°C
Dauwpunt: 2°C
Vochtigheid: 81%
Barometer: 998 hPa
Bewolking: Grotendeels bewolkt
Zicht: 7 km
Bewolking: Licht bewolkt 1800 ft,
Grotendeels bewolkt 3200 ft
EDDL 251620Z 27024KT 7000 SHGSRA FEW018 BKN032CB 05/02 Q0998 BECMG 24015KT NSW
  

Script ontwikkeld door  Saratoga-weather.org Aangepast voor de template door  Weerstation Leuven